»·PEaware :: SWA342 KSMF-KPDX

SWA342 :: KSMF-KPDX

FLIGHT INFORMATION

Flight Status: Arrived
Operator:
Southwest Airlines
More flights by this operator :: More flights under this callsign
Pilot: Hendrik S. (17810)
Aircraft: BOEING 737-800
(B738)
More flights by this aircraft type
Origin: KSMF Sacramento Intl
United States
Destination: KPDX Portland Intl
United States
More flights between these airports :: More routes between these airports
Route: RBL MACHU TMBRS2
File this flight plan on PilotEdge
Remarks:
Altitude:
(Current/Filed)
34,000ft
Speed:
(Current/Filed)
446kts
Departed: 26-Feb-19 12:25 PM
Arrived: 26-Feb-19 01:39 PM
Distance/Time
Traveled:
416nm/1:14
Distance/Time
To Go:
Arrived

Flight Plot

Page will automatically refresh every two minutes.

Flight plan parsing failed; only flown route is shown


Map Options




Map Legend


Flown Route
Filed Route
Departure Airport
Arrival Airport
Navaid (VOR, NDB)
Fix

Horizontal Profiles

Position Reports

Time Latitude Longitude Heading Altitude Ground
Speed
26-Feb-19 11:12 38.696143 -121.590758 239 27ft 0kts
26-Feb-19 11:13 38.696143 -121.590758 239 27ft 0kts
26-Feb-19 11:14 38.696143 -121.590758 239 27ft 0kts
26-Feb-19 11:15 38.696143 -121.590758 239 27ft 0kts
26-Feb-19 11:16 38.696143 -121.590758 239 27ft 0kts
26-Feb-19 11:17 38.696143 -121.590758 239 27ft 0kts
26-Feb-19 11:18 38.696143 -121.590758 239 27ft 0kts
26-Feb-19 11:19 38.696143 -121.590758 239 27ft 0kts
26-Feb-19 11:20 38.696143 -121.590758 239 27ft 0kts
26-Feb-19 11:21 38.696143 -121.590758 239 27ft 0kts
26-Feb-19 11:22 38.696143 -121.590758 239 27ft 0kts
26-Feb-19 11:23 38.696143 -121.590758 239 27ft 0kts
26-Feb-19 11:24 38.696143 -121.590758 239 27ft 0kts
26-Feb-19 11:25 38.696143 -121.590758 239 27ft 0kts
26-Feb-19 11:26 38.696143 -121.590758 239 27ft 0kts
26-Feb-19 11:27 38.696143 -121.590758 239 27ft 0kts
26-Feb-19 11:28 38.696143 -121.590758 239 27ft 0kts
26-Feb-19 11:29 38.696143 -121.590758 239 27ft 0kts
26-Feb-19 11:30 38.696143 -121.590758 239 27ft 0kts
26-Feb-19 11:31 38.696143 -121.590758 239 27ft 0kts
26-Feb-19 11:32 38.696143 -121.590758 239 27ft 0kts
26-Feb-19 11:33 38.696143 -121.590758 239 27ft 0kts
26-Feb-19 11:34 38.696143 -121.590758 239 27ft 0kts
26-Feb-19 11:35 38.696143 -121.590758 239 27ft 0kts
26-Feb-19 11:37 38.696143 -121.590758 239 27ft 0kts
26-Feb-19 11:38 38.696143 -121.590758 239 27ft 0kts
26-Feb-19 11:39 38.696143 -121.590758 239 27ft 0kts
26-Feb-19 11:40 38.696143 -121.590758 239 27ft 0kts
26-Feb-19 11:41 38.696143 -121.590758 239 27ft 0kts
26-Feb-19 11:42 38.696143 -121.590758 239 27ft 0kts
26-Feb-19 11:43 38.696143 -121.590758 239 27ft 0kts
26-Feb-19 11:44 38.696143 -121.590758 239 27ft 0kts
26-Feb-19 11:45 38.696143 -121.590758 239 27ft 0kts
26-Feb-19 11:46 38.696143 -121.590758 239 27ft 0kts
26-Feb-19 11:47 38.696143 -121.590758 239 27ft 0kts
26-Feb-19 11:48 38.696143 -121.590758 239 27ft 0kts
26-Feb-19 11:49 38.696143 -121.590758 239 27ft 0kts
26-Feb-19 11:50 38.696143 -121.590758 239 27ft 0kts
26-Feb-19 11:51 38.696143 -121.590758 239 27ft 0kts
26-Feb-19 11:52 38.696143 -121.590758 239 27ft 0kts
26-Feb-19 11:53 38.696143 -121.590758 239 27ft 0kts
26-Feb-19 11:54 38.696143 -121.590758 239 27ft 0kts
26-Feb-19 11:54 38.696143 -121.590758 239 27ft 0kts
26-Feb-19 11:55 38.696143 -121.590758 239 27ft 0kts
26-Feb-19 11:57 38.696143 -121.590758 239 27ft 0kts
26-Feb-19 11:58 38.696143 -121.590758 239 27ft 0kts
26-Feb-19 11:58 38.696143 -121.590758 239 27ft 0kts
26-Feb-19 11:59 38.696143 -121.590758 239 27ft 0kts
26-Feb-19 12:01 38.696143 -121.590758 239 27ft 0kts
26-Feb-19 12:01 38.696143 -121.590758 239 27ft 0kts
26-Feb-19 12:02 38.696143 -121.590758 239 27ft 0kts
26-Feb-19 12:03 38.696143 -121.590758 239 27ft 0kts
26-Feb-19 12:04 38.696143 -121.590758 239 27ft 0kts
26-Feb-19 12:05 38.696141 -121.590749 240 27ft 1kts
26-Feb-19 12:06 38.696207 -121.590614 236 27ft 0kts
26-Feb-19 12:07 38.696207 -121.590614 236 27ft 0kts
26-Feb-19 12:08 38.696207 -121.590614 236 27ft 0kts
26-Feb-19 12:09 38.696207 -121.590614 236 27ft 0kts
26-Feb-19 12:10 38.696207 -121.590613 236 27ft 0kts
26-Feb-19 12:11 38.696405 -121.590234 220 27ft 2kts
26-Feb-19 12:12 38.696923 -121.590388 109 27ft 2kts
26-Feb-19 12:13 38.696945 -121.590613 89 27ft 0kts
26-Feb-19 12:14 38.696945 -121.590613 89 27ft 0kts
26-Feb-19 12:15 38.696945 -121.590613 89 27ft 0kts
26-Feb-19 12:16 38.696943 -121.589742 90 27ft 10kts
26-Feb-19 12:17 38.697075 -121.588652 311 27ft 4kts
26-Feb-19 12:18 38.697452 -121.584692 84 27ft 11kts
26-Feb-19 12:19 38.700046 -121.582811 0 27ft 18kts
26-Feb-19 12:20 38.705025 -121.582718 1 27ft 16kts
26-Feb-19 12:21 38.707009 -121.581503 91 27ft 0kts
26-Feb-19 12:22 38.707009 -121.581500 91 27ft 0kts
26-Feb-19 12:23 38.703123 -121.580136 179 27ft 40kts
26-Feb-19 12:24 38.669150 -121.578688 152 1138ft 146kts
26-Feb-19 12:25 38.672579 -121.521025 40 2242ft 247kts
26-Feb-19 12:26 38.740746 -121.484843 23 4482ft 288kts
26-Feb-19 12:27 38.818829 -121.478859 335 7204ft 299kts
26-Feb-19 12:28 38.894279 -121.518579 330 9630ft 307kts
26-Feb-19 12:29 38.976302 -121.566692 329 11642ft 341kts
26-Feb-19 12:30 39.062852 -121.617426 328 14651ft 351kts
26-Feb-19 12:31 39.150852 -121.669163 327 17622ft 360kts
26-Feb-19 12:32 39.243002 -121.723552 326 19035ft 368kts
26-Feb-19 12:33 39.335492 -121.778293 326 19037ft 368kts
26-Feb-19 12:34 39.429739 -121.834270 325 21483ft 379kts
26-Feb-19 12:35 39.525940 -121.891580 325 23842ft 391kts
26-Feb-19 12:36 39.625588 -121.951184 325 25932ft 404kts
26-Feb-19 12:37 39.727899 -122.012576 324 27838ft 416kts
26-Feb-19 12:38 39.833002 -122.075772 324 29636ft 427kts
26-Feb-19 12:39 39.939957 -122.140143 323 31635ft 427kts
26-Feb-19 12:40 40.044950 -122.203442 322 33672ft 411kts
26-Feb-19 12:41 40.148707 -122.248985 337 33916ft 450kts
26-Feb-19 12:42 40.271327 -122.277064 337 33893ft 452kts
26-Feb-19 12:43 40.393396 -122.305489 337 33884ft 454kts
26-Feb-19 12:44 40.516954 -122.334448 337 33884ft 454kts
26-Feb-19 12:45 40.640793 -122.363666 337 33884ft 455kts
26-Feb-19 12:46 40.765121 -122.393119 336 33872ft 457kts
26-Feb-19 12:47 40.889548 -122.422682 336 33867ft 456kts
26-Feb-19 12:48 41.014589 -122.452511 336 33868ft 459kts
26-Feb-19 12:49 41.131989 -122.480630 336 33858ft 458kts
26-Feb-19 12:50 41.259468 -122.511256 336 33858ft 458kts
26-Feb-19 12:51 41.383777 -122.541215 335 33864ft 458kts
26-Feb-19 12:52 41.508227 -122.571334 335 33869ft 458kts
26-Feb-19 12:53 41.637910 -122.583245 344 33870ft 474kts
26-Feb-19 12:54 41.768211 -122.591508 343 33871ft 474kts
26-Feb-19 12:55 41.898863 -122.599977 343 33873ft 474kts
26-Feb-19 12:56 42.030031 -122.608542 343 33895ft 473kts
26-Feb-19 12:57 42.157667 -122.616927 343 33900ft 473kts
26-Feb-19 12:58 42.286070 -122.625473 343 33901ft 475kts
26-Feb-19 12:59 42.416848 -122.634196 343 33903ft 475kts
26-Feb-19 13:00 42.548800 -122.643071 344 33905ft 477kts
26-Feb-19 13:01 42.680791 -122.651934 343 33925ft 474kts
26-Feb-19 13:02 42.812746 -122.660833 343 33929ft 478kts
26-Feb-19 13:03 42.944795 -122.669750 344 33929ft 476kts
26-Feb-19 13:04 43.077093 -122.678731 344 33937ft 476kts
26-Feb-19 13:05 43.209386 -122.687784 344 33970ft 478kts
26-Feb-19 13:06 43.342253 -122.696886 344 33975ft 478kts
26-Feb-19 13:07 43.475499 -122.706044 344 33977ft 477kts
26-Feb-19 13:08 43.608296 -122.715187 344 33978ft 477kts
26-Feb-19 13:09 43.740257 -122.724322 344 33969ft 476kts
26-Feb-19 13:10 43.870803 -122.733393 344 33990ft 475kts
26-Feb-19 13:11 43.999093 -122.742370 344 33991ft 475kts
26-Feb-19 13:12 44.123211 -122.751214 345 31598ft 492kts
26-Feb-19 13:13 44.250733 -122.744186 353 28168ft 512kts
26-Feb-19 13:14 44.400678 -122.728787 353 24759ft 503kts
26-Feb-19 13:15 44.538039 -122.714916 355 21632ft 491kts
26-Feb-19 13:16 44.670747 -122.701375 356 19105ft 461kts
26-Feb-19 13:17 44.794412 -122.688596 358 16155ft 421kts
26-Feb-19 13:18 44.903152 -122.677415 359 14182ft 359kts
26-Feb-19 13:19 44.995022 -122.668061 0 12954ft 317kts
26-Feb-19 13:20 45.082316 -122.659295 2 11453ft 311kts
26-Feb-19 13:21 45.165710 -122.650934 5 10244ft 295kts
26-Feb-19 13:22 45.244376 -122.643727 359 9093ft 267kts
26-Feb-19 13:23 45.315259 -122.677823 342 8391ft 275kts
26-Feb-19 13:24 45.385347 -122.716513 343 7242ft 269kts
26-Feb-19 13:25 45.453262 -122.754161 343 6155ft 263kts
26-Feb-19 13:26 45.520037 -122.790911 343 5180ft 253kts
26-Feb-19 13:27 45.576235 -122.826798 319 4950ft 225kts
26-Feb-19 13:28 45.611234 -122.903373 301 4963ft 232kts
26-Feb-19 13:29 45.643385 -122.985056 304 4946ft 237kts
26-Feb-19 13:30 45.700083 -122.992372 39 4114ft 222kts
26-Feb-19 13:31 45.712690 -122.920221 112 3997ft 162kts
26-Feb-19 13:32 45.688816 -122.864239 114 4040ft 169kts
26-Feb-19 13:33 45.666146 -122.804519 117 2966ft 165kts
26-Feb-19 13:34 45.646016 -122.752374 119 2118ft 144kts
26-Feb-19 13:35 45.626634 -122.703218 116 1331ft 131kts
26-Feb-19 13:36 45.610189 -122.660717 117 629ft 135kts
26-Feb-19 13:37 45.592057 -122.613378 113 27ft 133kts
26-Feb-19 13:38 45.587953 -122.600015 74 21ft 0kts
26-Feb-19 13:39 45.587953 -122.600015 74 21ft 0kts
26-Feb-19 13:40 45.588172 -122.598877 74 23ft 4kts
26-Feb-19 13:41 45.587996 -122.596698 34 23ft 2kts
26-Feb-19 13:43 45.588447 -122.596336 26 24ft 0kts
26-Feb-19 13:44 45.588448 -122.596335 27 24ft 0kts

Navigation Log

Ident Type
Flight plan parsing failed, navigation log unavailable